Time;durP1;ratioP1;P1;durP2;ratioP2;P2;SDS_P1;SDS_P2;PMS_P1;PMS_P2;Temp;Humidity;BMP_temperature;BMP_pressure;BME280_temperature;BME280_humidity;BME280_pressure;Samples;Min_cycle;Max_cycle;Signal;HPM_P1;HPM_P2
2021/01/07 00:00:46;;;;;;;7.13;5.07;;;3.00;99.90;;;;;;5011987;28;20202;-85
2021/01/07 00:03:13;;;;;;;6.50;5.40;;;3.00;99.90;;;;;;5010998;28;20191;-90
2021/01/07 00:05:40;;;;;;;6.70;5.33;;;3.00;99.90;;;;;;5011601;28;20200;-91
2021/01/07 00:08:06;;;;;;;6.83;4.90;;;2.90;99.90;;;;;;5011592;28;20510;-89
2021/01/07 00:10:33;;;;;;;6.93;5.57;;;3.00;99.90;;;;;;5011005;28;20203;-90
2021/01/07 00:12:59;;;;;;;6.03;4.77;;;2.90;99.90;;;;;;5010810;28;20647;-84
2021/01/07 00:15:26;;;;;;;7.03;4.67;;;2.90;99.90;;;;;;5011023;28;20214;-82
2021/01/07 00:17:52;;;;;;;4.57;3.83;;;2.90;99.90;;;;;;5011800;28;20219;-87
2021/01/07 00:20:19;;;;;;;4.63;4.03;;;2.90;99.90;;;;;;5011884;28;20199;-91
2021/01/07 00:22:46;;;;;;;5.57;4.93;;;2.90;99.90;;;;;;5012302;28;20591;-89
2021/01/07 00:25:12;;;;;;;7.70;6.20;;;2.90;99.90;;;;;;5010108;28;20218;-86
2021/01/07 00:27:38;;;;;;;9.80;7.57;;;2.80;99.90;;;;;;5011049;28;20207;-90
2021/01/07 00:30:06;;;;;;;9.07;6.90;;;2.80;99.90;;;;;;5010734;28;20203;-91
2021/01/07 00:32:33;;;;;;;7.67;6.50;;;2.80;99.90;;;;;;5021523;28;20219;-89
2021/01/07 00:34:59;;;;;;;6.13;5.10;;;2.80;99.90;;;;;;5030658;28;20241;-88
2021/01/07 00:37:26;;;;;;;6.33;4.40;;;2.80;99.90;;;;;;5031475;28;20199;-89
2021/01/07 00:39:53;;;;;;;4.87;4.10;;;2.80;99.90;;;;;;5031568;28;20229;-91
2021/01/07 00:42:19;;;;;;;4.53;3.50;;;2.80;99.90;;;;;;5031837;28;20248;-84
2021/01/07 00:44:46;;;;;;;3.47;2.97;;;2.80;99.90;;;;;;5030094;28;20205;-85
2021/01/07 00:47:12;;;;;;;3.30;3.00;;;2.80;99.90;;;;;;5030597;28;20739;-89
2021/01/07 00:49:39;;;;;;;4.07;3.07;;;2.80;99.90;;;;;;5030665;28;20225;-91
2021/01/07 00:52:05;;;;;;;4.70;3.17;;;2.80;99.90;;;;;;5030508;28;20206;-89
2021/01/07 00:54:32;;;;;;;3.40;2.80;;;2.80;99.90;;;;;;5026604;28;20213;-86
2021/01/07 00:56:58;;;;;;;4.37;3.20;;;2.80;99.90;;;;;;5025000;28;20357;-86
2021/01/07 00:59:25;;;;;;;9.83;6.87;;;2.70;99.90;;;;;;5028554;28;20533;-88
2021/01/07 01:01:51;;;;;;;9.93;6.37;;;2.80;99.90;;;;;;5028929;28;20211;-89
2021/01/07 01:04:18;;;;;;;6.30;4.13;;;2.80;99.90;;;;;;5028516;28;20195;-83
2021/01/07 01:06:44;;;;;;;4.53;3.90;;;2.70;99.90;;;;;;5030033;28;20203;-86
2021/01/07 01:09:12;;;;;;;4.10;3.10;;;2.70;99.90;;;;;;5029422;28;20210;-84
2021/01/07 01:11:40;;;;;;;4.47;2.67;;;2.70;99.90;;;;;;5029768;28;20201;-88
2021/01/07 01:14:06;;;;;;;2.80;2.17;;;2.70;99.90;;;;;;5030222;28;20207;-91
2021/01/07 01:16:33;;;;;;;3.53;2.00;;;2.70;99.90;;;;;;5029558;28;20467;-86
2021/01/07 01:18:59;;;;;;;3.83;1.83;;;2.70;99.90;;;;;;5028807;28;20206;-90
2021/01/07 01:21:26;;;;;;;2.57;1.90;;;2.70;99.90;;;;;;5027852;28;20217;-85
2021/01/07 01:23:52;;;;;;;2.07;1.87;;;2.70;99.90;;;;;;5025459;28;20205;-80
2021/01/07 01:26:18;;;;;;;2.63;2.00;;;2.70;99.90;;;;;;5024557;28;20213;-81
2021/01/07 01:28:46;;;;;;;2.83;1.83;;;2.80;99.90;;;;;;5023481;28;20257;-80
2021/01/07 01:31:12;;;;;;;3.23;2.00;;;2.80;99.90;;;;;;5024376;28;20277;-81
2021/01/07 01:33:39;;;;;;;3.10;2.57;;;2.80;99.90;;;;;;5025221;28;20964;-82
2021/01/07 01:36:06;;;;;;;4.30;1.80;;;2.80;99.90;;;;;;5024315;28;20195;-89
2021/01/07 01:38:32;;;;;;;3.30;2.03;;;2.80;99.90;;;;;;5024929;28;20226;-83
2021/01/07 01:41:03;;;;;;;2.97;1.93;;;2.80;99.90;;;;;;5025124;28;20203;-81
2021/01/07 01:43:30;;;;;;;2.67;1.80;;;2.80;99.90;;;;;;5023855;28;20233;-82
2021/01/07 01:45:58;;;;;;;3.20;1.73;;;2.90;99.90;;;;;;5025643;28;20198;-80
2021/01/07 01:48:26;;;;;;;3.67;2.10;;;2.90;99.90;;;;;;5025907;28;20214;-83
2021/01/07 01:50:53;;;;;;;1.87;1.50;;;2.90;99.90;;;;;;5027942;28;20217;-88
2021/01/07 01:53:20;;;;;;;3.27;1.47;;;2.90;99.90;;;;;;5029112;28;20565;-89
2021/01/07 01:55:47;;;;;;;2.47;1.43;;;2.90;99.90;;;;;;5029567;28;20218;-90
2021/01/07 01:58:15;;;;;;;1.80;1.53;;;2.90;99.90;;;;;;5026852;28;20206;-83
2021/01/07 02:00:41;;;;;;;1.97;1.13;;;2.90;99.90;;;;;;5023757;28;20218;-90
2021/01/07 02:03:10;;;;;;;1.77;0.90;;;2.90;99.90;;;;;;5024862;28;20202;-90
2021/01/07 02:05:36;;;;;;;2.83;1.23;;;3.00;99.90;;;;;;5027653;28;20205;-90
2021/01/07 02:08:04;;;;;;;1.90;1.00;;;3.00;99.90;;;;;;5029544;28;20213;-90
2021/01/07 02:10:31;;;;;;;1.50;1.30;;;3.00;99.90;;;;;;5030983;28;20191;-90
2021/01/07 02:12:58;;;;;;;1.87;0.80;;;3.00;99.90;;;;;;5029953;28;20325;-89
2021/01/07 02:15:25;;;;;;;2.60;0.80;;;3.10;99.90;;;;;;5028462;28;20203;-90
2021/01/07 02:17:51;;;;;;;1.67;0.93;;;3.00;99.90;;;;;;5023380;28;20387;-90
2021/01/07 02:20:23;;;;;;;1.90;0.80;;;3.10;99.90;;;;;;5022695;28;20195;-91
2021/01/07 02:22:53;;;;;;;0.70;0.60;;;3.00;99.90;;;;;;5025522;28;20198;-89
2021/01/07 02:25:20;;;;;;;1.17;0.70;;;3.00;99.90;;;;;;5030839;28;20214;-89
2021/01/07 02:27:46;;;;;;;0.80;0.80;;;3.10;99.90;;;;;;5030282;28;20202;-90
2021/01/07 02:30:13;;;;;;;1.20;0.77;;;3.00;99.90;;;;;;5029750;28;20234;-89
2021/01/07 02:32:40;;;;;;;1.00;0.90;;;3.10;99.90;;;;;;5029889;28;20230;-89
2021/01/07 02:35:08;;;;;;;2.30;0.80;;;3.10;99.90;;;;;;5030335;28;20203;-90
2021/01/07 02:37:36;;;;;;;0.90;0.80;;;3.10;99.90;;;;;;5030309;28;20257;-86
2021/01/07 02:40:04;;;;;;;1.37;0.87;;;3.10;99.90;;;;;;5029989;28;20206;-89
2021/01/07 02:42:31;;;;;;;0.80;0.80;;;3.10;99.90;;;;;;5030440;28;20198;-88
2021/01/07 02:44:57;;;;;;;1.07;0.70;;;3.10;99.90;;;;;;5029932;28;20203;-87
2021/01/07 02:47:23;;;;;;;1.00;0.90;;;3.10;99.90;;;;;;5029531;28;20293;-89
2021/01/07 02:49:49;;;;;;;1.03;0.70;;;3.10;99.90;;;;;;5029997;28;20689;-89
2021/01/07 02:52:16;;;;;;;2.87;0.80;;;3.10;99.90;;;;;;5021970;28;20206;-88
2021/01/07 02:54:43;;;;;;;1.27;0.70;;;3.10;99.90;;;;;;5029173;28;20433;-87
2021/01/07 02:57:09;;;;;;;1.23;0.87;;;3.10;99.90;;;;;;5029692;28;20198;-88
2021/01/07 02:59:35;;;;;;;0.93;0.77;;;3.10;99.90;;;;;;5029412;28;20202;-88
2021/01/07 03:02:02;;;;;;;1.80;0.90;;;3.10;99.90;;;;;;5029038;28;20206;-87
2021/01/07 03:04:28;;;;;;;2.10;0.80;;;3.20;99.90;;;;;;5028862;28;20503;-87
2021/01/07 03:06:54;;;;;;;2.73;0.93;;;3.20;99.90;;;;;;5027627;28;20218;-88
2021/01/07 03:09:20;;;;;;;1.03;0.60;;;3.20;99.90;;;;;;5029137;28;20193;-88
2021/01/07 03:11:47;;;;;;;0.83;0.60;;;3.30;99.90;;;;;;5029688;28;20238;-88
2021/01/07 03:14:14;;;;;;;1.23;0.90;;;3.30;99.90;;;;;;5027694;28;20230;-87
2021/01/07 03:16:40;;;;;;;3.80;0.93;;;3.40;99.90;;;;;;5028657;28;20191;-88
2021/01/07 03:19:06;;;;;;;1.60;0.60;;;3.30;99.90;;;;;;5029794;28;20199;-88
2021/01/07 03:21:32;;;;;;;1.37;1.07;;;3.30;99.90;;;;;;5029547;28;20198;-84
2021/01/07 03:23:59;;;;;;;1.07;0.80;;;3.30;99.90;;;;;;5028709;28;20198;-84
2021/01/07 03:26:25;;;;;;;1.23;0.70;;;3.20;99.90;;;;;;5028292;28;20210;-88
2021/01/07 03:28:53;;;;;;;1.13;0.60;;;3.30;99.90;;;;;;5031553;28;20311;-83
2021/01/07 03:31:19;;;;;;;0.60;0.50;;;3.20;99.90;;;;;;5031556;28;20202;-88
2021/01/07 03:33:45;;;;;;;0.90;0.67;;;3.30;99.90;;;;;;5032376;28;20218;-87
2021/01/07 03:36:11;;;;;;;0.40;0.40;;;3.20;99.90;;;;;;5032497;28;20207;-88
2021/01/07 03:38:37;;;;;;;0.50;0.50;;;3.20;99.90;;;;;;5033393;28;20210;-89
2021/01/07 03:41:04;;;;;;;0.60;0.60;;;3.20;99.90;;;;;;5032904;28;20202;-89
2021/01/07 03:43:30;;;;;;;1.47;0.50;;;3.20;99.90;;;;;;5034368;28;20205;-89
2021/01/07 03:45:57;;;;;;;0.97;0.50;;;3.20;99.90;;;;;;5033753;28;20516;-90
2021/01/07 03:48:24;;;;;;;2.83;0.47;;;3.20;99.90;;;;;;5033028;28;20256;-89
2021/01/07 03:50:50;;;;;;;0.40;0.40;;;3.20;99.90;;;;;;5030752;28;20194;-89
2021/01/07 03:53:16;;;;;;;2.13;0.50;;;3.20;99.90;;;;;;5027468;28;20265;-89
2021/01/07 03:55:42;;;;;;;1.37;0.40;;;3.20;99.90;;;;;;5030833;28;20273;-88
2021/01/07 03:58:09;;;;;;;0.50;0.50;;;3.20;99.90;;;;;;5033432;28;20218;-89
2021/01/07 04:00:35;;;;;;;0.73;0.70;;;3.20;99.90;;;;;;5033806;28;20516;-89
2021/01/07 04:03:03;;;;;;;1.23;0.60;;;3.20;99.90;;;;;;5033464;28;20465;-89
2021/01/07 04:05:29;;;;;;;1.80;0.50;;;3.30;99.90;;;;;;5033154;28;20207;-89
2021/01/07 04:07:55;;;;;;;0.53;0.53;;;3.30;99.90;;;;;;5029201;28;20658;-89
2021/01/07 04:10:22;;;;;;;1.67;0.47;;;3.30;99.90;;;;;;5026984;28;20199;-89
2021/01/07 04:12:48;;;;;;;1.23;0.63;;;3.30;99.90;;;;;;5046292;28;20236;-89
2021/01/07 04:15:14;;;;;;;1.57;0.73;;;3.30;99.90;;;;;;5067757;28;20280;-89
2021/01/07 04:17:40;;;;;;;1.70;0.50;;;3.30;99.90;;;;;;5070321;28;20747;-89
2021/01/07 04:20:09;;;;;;;0.93;0.53;;;3.30;99.90;;;;;;5072857;28;20492;-89
2021/01/07 04:22:39;;;;;;;1.90;0.50;;;3.30;99.90;;;;;;5073413;28;20202;-89
2021/01/07 04:25:06;;;;;;;1.43;0.50;;;3.30;99.90;;;;;;5072749;28;20201;-89
2021/01/07 04:27:32;;;;;;;1.93;0.50;;;3.30;99.90;;;;;;5072819;28;20201;-88
2021/01/07 04:29:59;;;;;;;0.93;0.70;;;3.40;99.90;;;;;;5072233;28;20256;-87
2021/01/07 04:32:25;;;;;;;0.90;0.40;;;3.40;99.90;;;;;;5071573;28;20254;-88
2021/01/07 04:34:51;;;;;;;0.70;0.43;;;3.40;99.90;;;;;;5069531;28;20201;-86
2021/01/07 04:37:19;;;;;;;0.50;0.40;;;3.40;99.90;;;;;;5065737;28;20205;-90
2021/01/07 04:39:45;;;;;;;0.73;0.40;;;3.40;99.90;;;;;;5064828;28;20209;-87
2021/01/07 04:42:12;;;;;;;2.90;0.50;;;3.40;99.90;;;;;;5066175;28;20205;-90
2021/01/07 04:44:41;;;;;;;1.00;0.60;;;3.40;99.90;;;;;;5066910;28;20201;-82
2021/01/07 04:47:07;;;;;;;0.93;0.70;;;3.40;99.90;;;;;;5071313;28;20254;-90
2021/01/07 04:49:34;;;;;;;1.13;0.70;;;3.50;99.90;;;;;;5071663;28;20205;-88
2021/01/07 04:52:00;;;;;;;0.50;0.40;;;3.40;99.90;;;;;;5071454;28;20228;-88
2021/01/07 04:54:27;;;;;;;2.70;0.57;;;3.40;99.90;;;;;;5071023;28;20229;-85
2021/01/07 04:56:54;;;;;;;0.37;0.37;;;3.40;99.90;;;;;;5070345;28;20278;-86
2021/01/07 04:59:20;;;;;;;0.63;0.50;;;3.40;99.90;;;;;;5070626;28;20194;-86
2021/01/07 05:01:48;;;;;;;1.80;0.60;;;3.40;99.90;;;;;;5071263;28;20205;-90
2021/01/07 05:04:16;;;;;;;2.27;0.50;;;3.50;99.90;;;;;;5070900;28;20209;-89
2021/01/07 05:06:42;;;;;;;2.93;0.50;;;3.50;99.90;;;;;;5071629;28;20487;-90
2021/01/07 05:09:09;;;;;;;2.73;0.50;;;3.50;99.90;;;;;;5070715;28;20205;-88
2021/01/07 05:11:36;;;;;;;0.37;0.37;;;3.50;99.90;;;;;;5071059;28;20258;-84
2021/01/07 05:14:04;;;;;;;1.80;0.60;;;3.50;99.90;;;;;;5070387;28;20248;-85
2021/01/07 05:16:31;;;;;;;0.87;0.40;;;3.50;99.90;;;;;;5070443;28;20204;-85
2021/01/07 05:18:57;;;;;;;0.67;0.40;;;3.40;99.90;;;;;;5069947;28;20209;-86
2021/01/07 05:21:24;;;;;;;0.50;0.50;;;3.40;99.90;;;;;;5069619;28;20291;-89
2021/01/07 05:23:52;;;;;;;0.70;0.40;;;3.40;99.90;;;;;;5070811;28;20194;-83
2021/01/07 05:26:19;;;;;;;1.53;0.60;;;3.40;99.90;;;;;;5070434;28;20259;-86
2021/01/07 05:28:47;;;;;;;3.33;0.47;;;3.40;99.90;;;;;;5069966;28;20205;-89
2021/01/07 05:31:18;;;;;;;2.53;0.87;;;3.40;99.90;;;;;;5070655;28;20204;-89
2021/01/07 05:33:44;;;;;;;2.10;0.50;;;3.40;99.90;;;;;;5070965;28;20332;-89
2021/01/07 05:36:21;;;;;;;1.00;0.50;;;3.40;99.90;;;;;;5069780;28;20202;-83
2021/01/07 05:38:49;;;;;;;0.90;0.50;;;3.40;99.90;;;;;;5071253;28;20247;-88
2021/01/07 05:41:16;;;;;;;5.70;0.63;;;3.40;99.90;;;;;;5070790;28;20197;-87
2021/01/07 05:43:43;;;;;;;3.47;0.70;;;3.40;99.90;;;;;;5070146;28;20292;-85
2021/01/07 05:46:11;;;;;;;1.43;1.00;;;3.40;99.90;;;;;;5069566;28;20204;-88
2021/01/07 05:48:38;;;;;;;0.93;0.60;;;3.50;99.90;;;;;;5070259;28;20197;-86
2021/01/07 05:51:05;;;;;;;2.17;0.67;;;3.50;99.90;;;;;;5069975;28;20194;-89
2021/01/07 05:53:32;;;;;;;2.57;0.50;;;3.50;99.90;;;;;;5070052;28;20236;-85
2021/01/07 05:55:59;;;;;;;2.37;0.97;;;3.40;99.90;;;;;;5066491;28;20217;-89
2021/01/07 05:58:25;;;;;;;1.73;0.50;;;3.40;99.90;;;;;;5066775;28;20205;-84
2021/01/07 06:00:55;;;;;;;2.70;0.60;;;3.40;99.90;;;;;;5067485;28;20627;-82
2021/01/07 06:03:24;;;;;;;1.80;0.67;;;3.50;99.90;;;;;;5066555;28;20229;-80
2021/01/07 06:05:52;;;;;;;2.20;0.77;;;3.50;99.90;;;;;;5064241;28;20284;-80
2021/01/07 06:08:19;;;;;;;2.20;0.60;;;3.40;99.90;;;;;;5064675;28;20198;-81
2021/01/07 06:10:46;;;;;;;3.07;1.00;;;3.50;99.90;;;;;;5065592;28;20190;-83
2021/01/07 06:13:13;;;;;;;0.80;0.57;;;3.50;99.90;;;;;;5063773;28;20240;-83
2021/01/07 06:15:40;;;;;;;1.77;1.00;;;3.50;99.90;;;;;;5065302;28;20201;-85
2021/01/07 06:18:06;;;;;;;3.50;1.40;;;3.50;99.90;;;;;;5066035;28;20215;-83
2021/01/07 06:20:34;;;;;;;2.87;2.00;;;3.50;99.90;;;;;;5064408;28;20497;-81
2021/01/07 06:23:01;;;;;;;6.87;2.80;;;3.60;99.90;;;;;;5067786;28;20561;-87
2021/01/07 06:25:28;;;;;;;5.57;2.47;;;3.50;99.90;;;;;;5067303;28;20208;-82
2021/01/07 06:27:55;;;;;;;4.87;1.10;;;3.50;99.90;;;;;;5068010;28;20828;-85
2021/01/07 06:30:35;;;;;;;3.57;1.00;;;3.50;99.90;;;;;;5067511;28;20201;-84
2021/01/07 06:33:09;;;;;;;4.00;1.03;;;3.50;99.90;;;;;;5066271;28;20266;-82
2021/01/07 06:35:39;;;;;;;5.00;1.13;;;3.60;99.90;;;;;;5067586;28;20198;-87
2021/01/07 06:38:06;;;;;;;7.60;1.53;;;3.70;99.90;;;;;;5067782;28;20212;-83
2021/01/07 06:40:40;;;;;;;5.43;1.50;;;3.70;99.90;;;;;;5063888;28;20220;-84
2021/01/07 06:43:18;;;;;;;5.90;2.73;;;3.80;99.90;;;;;;5064710;28;20224;-89
2021/01/07 06:45:51;;;;;;;5.43;1.83;;;3.90;99.90;;;;;;5069443;28;20205;-89
2021/01/07 06:48:26;;;;;;;4.90;1.13;;;3.80;99.90;;;;;;5071107;28;20205;-90
2021/01/07 06:50:58;;;;;;;3.07;0.97;;;3.90;99.90;;;;;;5071099;28;20204;-90
2021/01/07 06:53:25;;;;;;;1.60;0.70;;;3.90;99.90;;;;;;5070260;28;20225;-90
2021/01/07 06:56:15;;;;;;;3.73;0.73;;;3.90;99.90;;;;;;5070111;28;20290;-91
2021/01/07 06:58:42;;;;;;;1.03;0.43;;;3.90;99.90;;;;;;5071572;28;20197;-92
2021/01/07 07:01:10;;;;;;;2.73;0.67;;;3.90;99.90;;;;;;5068837;28;20209;-83
2021/01/07 07:03:47;;;;;;;2.10;0.67;;;3.90;99.90;;;;;;5073325;28;20194;-89
2021/01/07 07:06:17;;;;;;;8.50;1.17;;;3.90;99.90;;;;;;5074983;28;20227;-88
2021/01/07 07:08:45;;;;;;;4.00;0.90;;;3.90;99.90;;;;;;5073944;28;20224;-86
2021/01/07 07:11:12;;;;;;;5.20;0.90;;;4.00;99.90;;;;;;5073078;28;20292;-92
2021/01/07 07:13:43;;;;;;;1.87;0.60;;;4.10;99.90;;;;;;5074478;28;20228;-91
2021/01/07 07:16:14;;;;;;;2.37;0.63;;;4.00;99.90;;;;;;5074837;28;20274;-94
2021/01/07 07:18:41;;;;;;;2.73;0.77;;;4.00;99.90;;;;;;5074039;28;20267;-93
2021/01/07 07:21:15;;;;;;;2.83;0.80;;;3.90;99.90;;;;;;5074383;28;20193;-91
2021/01/07 07:23:43;;;;;;;2.17;0.60;;;4.00;99.90;;;;;;5073405;28;20226;-92
2021/01/07 07:26:12;;;;;;;1.53;0.60;;;3.90;99.90;;;;;;5073076;28;20201;-92
2021/01/07 07:28:47;;;;;;;6.67;0.80;;;3.90;99.90;;;;;;5073341;28;20233;-92
2021/01/07 07:31:34;;;;;;;4.30;0.90;;;3.90;99.90;;;;;;5073613;28;20197;-93
2021/01/07 07:34:01;;;;;;;4.47;0.90;;;4.00;99.90;;;;;;5073234;28;20228;-93
2021/01/07 07:36:30;;;;;;;2.77;1.00;;;3.90;99.90;;;;;;5073981;28;20813;-88
2021/01/07 07:38:58;;;;;;;2.87;0.80;;;3.90;99.90;;;;;;5073197;28;20212;-81
2021/01/07 07:41:27;;;;;;;2.13;0.60;;;4.00;99.90;;;;;;5073849;28;20204;-93
2021/01/07 07:43:54;;;;;;;0.97;0.50;;;4.00;99.90;;;;;;5072916;28;20233;-92
2021/01/07 07:46:25;;;;;;;2.30;0.70;;;3.90;99.90;;;;;;5073550;28;20251;-85
2021/01/07 07:48:58;;;;;;;1.30;0.57;;;3.90;99.90;;;;;;5070848;28;20243;-84
2021/01/07 07:51:24;;;;;;;1.30;0.80;;;3.90;99.90;;;;;;5070736;28;20255;-87
2021/01/07 07:54:03;;;;;;;2.23;0.73;;;3.80;99.90;;;;;;5071359;28;20224;-88
2021/01/07 07:56:30;;;;;;;0.80;0.40;;;3.90;99.90;;;;;;5070696;28;20209;-91
2021/01/07 07:59:00;;;;;;;4.00;0.87;;;3.90;99.90;;;;;;5071707;28;20660;-88
2021/01/07 08:01:53;;;;;;;4.17;0.50;;;3.80;99.90;;;;;;5072868;28;20197;-93
2021/01/07 08:04:21;;;;;;;1.87;0.50;;;3.80;99.90;;;;;;5057679;28;20518;-89
2021/01/07 08:06:48;;;;;;;2.47;0.60;;;3.80;99.90;;;;;;5071229;28;20204;-91
2021/01/07 08:09:18;;;;;;;3.63;1.10;;;3.80;99.90;;;;;;5072427;28;20209;-92
2021/01/07 08:11:49;;;;;;;2.83;1.10;;;3.70;99.90;;;;;;5071798;28;20592;-90
2021/01/07 08:14:20;;;;;;;1.60;1.20;;;3.70;99.90;;;;;;5071427;28;20252;-89
2021/01/07 08:16:47;;;;;;;8.00;1.90;;;3.70;99.90;;;;;;5070882;28;20240;-86
2021/01/07 08:39:21;;;;;;;8.60;3.37;;;3.80;99.90;;;;;;4935824;28;20176;-83
2021/01/07 08:41:47;;;;;;;5.13;2.10;;;3.80;99.90;;;;;;5008158;28;20210;-87
2021/01/07 08:44:14;;;;;;;4.10;1.20;;;3.80;99.90;;;;;;5007988;28;20202;-83
2021/01/07 08:46:43;;;;;;;4.87;1.10;;;3.90;99.90;;;;;;5007144;28;20781;-87
2021/01/07 08:49:11;;;;;;;3.00;0.90;;;3.80;99.90;;;;;;5009014;28;20203;-89
2021/01/07 08:51:39;;;;;;;3.03;1.07;;;3.80;99.90;;;;;;5009885;28;20211;-88
2021/01/07 08:54:13;;;;;;;9.17;1.40;;;3.80;99.90;;;;;;5009676;28;20243;-91
2021/01/07 08:56:41;;;;;;;2.53;0.93;;;3.90;99.90;;;;;;5010483;28;20215;-86
2021/01/07 08:59:19;;;;;;;5.00;1.20;;;3.90;99.90;;;;;;5008522;28;20886;-88
2021/01/07 09:01:46;;;;;;;4.50;1.33;;;4.00;99.90;;;;;;5008065;28;20971;-89
2021/01/07 09:04:26;;;;;;;2.93;0.93;;;4.00;99.90;;;;;;5010201;28;20203;-87
2021/01/07 09:07:01;;;;;;;3.17;1.30;;;4.00;99.90;;;;;;5010383;28;20207;-93
2021/01/07 09:09:37;;;;;;;3.33;1.73;;;4.00;99.90;;;;;;5008358;28;20211;-88
2021/01/07 09:12:19;;;;;;;4.57;1.60;;;4.00;99.90;;;;;;5011203;28;20203;-92
2021/01/07 09:14:47;;;;;;;2.93;1.37;;;4.00;99.90;;;;;;4972034;28;20225;-92
2021/01/07 09:17:14;;;;;;;5.17;1.57;;;4.00;99.90;;;;;;4972155;28;20197;-93
2021/01/07 09:19:43;;;;;;;3.23;1.30;;;4.00;99.90;;;;;;4992819;28;20211;-91
2021/01/07 09:22:15;;;;;;;5.90;1.30;;;4.10;99.90;;;;;;5000710;28;20219;-89
2021/01/07 09:24:42;;;;;;;7.57;2.30;;;4.10;99.90;;;;;;4997402;28;20204;-94
2021/01/07 09:27:14;;;;;;;6.93;2.13;;;4.10;99.90;;;;;;5038028;28;20907;-90
2021/01/07 09:29:41;;;;;;;3.40;1.57;;;4.10;99.90;;;;;;5035674;28;20217;-86
2021/01/07 09:32:11;;;;;;;8.97;1.70;;;4.10;99.90;;;;;;5041688;28;20217;-93
2021/01/07 09:34:39;;;;;;;6.27;1.90;;;4.20;99.90;;;;;;5033136;28;20230;-91
2021/01/07 09:37:11;;;;;;;9.60;1.87;;;4.20;99.90;;;;;;5043035;28;20194;-85
2021/01/07 09:39:40;;;;;;;5.77;1.37;;;4.30;99.90;;;;;;5042359;28;20303;-87
2021/01/07 09:42:07;;;;;;;12.53;1.53;;;4.40;99.90;;;;;;5036853;28;20618;-85
2021/01/07 09:44:36;;;;;;;3.07;1.40;;;4.50;99.90;;;;;;5047953;28;20202;-92
2021/01/07 09:47:03;;;;;;;7.70;2.90;;;4.50;99.90;;;;;;5032413;28;20335;-92
2021/01/07 09:49:30;;;;;;;6.83;1.50;;;4.60;99.90;;;;;;5039436;28;20267;-94
2021/01/07 09:51:57;;;;;;;6.50;1.30;;;4.60;99.90;;;;;;5039708;28;20210;-91
2021/01/07 09:54:23;;;;;;;10.93;2.13;;;4.80;99.90;;;;;;5038705;28;20684;-89
2021/01/07 09:56:52;;;;;;;7.23;1.67;;;4.80;99.90;;;;;;5038041;28;20241;-92
2021/01/07 09:59:18;;;;;;;5.67;1.90;;;4.80;99.90;;;;;;5049481;28;20264;-89
2021/01/07 10:01:46;;;;;;;6.90;1.80;;;4.90;99.90;;;;;;5039816;28;20252;-92
2021/01/07 10:04:14;;;;;;;6.47;1.70;;;4.90;99.90;;;;;;5038544;28;20203;-90
2021/01/07 10:06:41;;;;;;;3.87;1.23;;;5.00;99.90;;;;;;5032828;28;20178;-89
2021/01/07 10:09:07;;;;;;;6.70;1.77;;;5.00;99.90;;;;;;5028234;28;20254;-81
2021/01/07 10:11:33;;;;;;;4.90;1.40;;;5.10;99.90;;;;;;5029168;28;20889;-87
2021/01/07 10:14:00;;;;;;;5.83;1.53;;;5.10;99.90;;;;;;5041171;28;20581;-83
2021/01/07 10:16:27;;;;;;;6.87;1.47;;;5.10;99.90;;;;;;5041026;28;20214;-91
2021/01/07 10:18:55;;;;;;;6.90;1.43;;;5.10;99.90;;;;;;5038956;28;20216;-91
2021/01/07 10:21:23;;;;;;;5.07;1.70;;;5.20;99.90;;;;;;5038972;28;20214;-87
2021/01/07 10:23:51;;;;;;;6.47;1.50;;;5.20;99.90;;;;;;5044577;28;20259;-93
2021/01/07 10:26:18;;;;;;;7.27;1.30;;;5.20;99.90;;;;;;5035853;28;20214;-89
2021/01/07 10:28:45;;;;;;;8.20;1.30;;;5.30;99.90;;;;;;5037535;28;20218;-92
2021/01/07 10:31:13;;;;;;;7.40;2.00;;;5.30;99.90;;;;;;5040294;28;20272;-91
2021/01/07 10:33:42;;;;;;;6.57;1.37;;;5.30;99.90;;;;;;5038300;28;21010;-92
2021/01/07 10:36:10;;;;;;;6.43;1.67;;;5.30;99.90;;;;;;5042246;28;20195;-88
2021/01/07 10:38:38;;;;;;;4.67;1.40;;;5.30;99.90;;;;;;5042482;28;20325;-92
2021/01/07 10:41:07;;;;;;;7.37;1.53;;;5.30;99.90;;;;;;5039478;28;20210;-90
2021/01/07 10:43:33;;;;;;;4.07;1.50;;;5.50;99.90;;;;;;5036422;28;20203;-78
2021/01/07 10:46:00;;;;;;;5.00;1.43;;;5.40;99.90;;;;;;5038323;28;20210;-90
2021/01/07 10:48:28;;;;;;;4.37;1.80;;;5.50;99.90;;;;;;5037989;28;20219;-92
2021/01/07 10:50:54;;;;;;;8.50;1.30;;;5.50;99.90;;;;;;5040621;28;20210;-90
2021/01/07 10:54:00;;;;;;;5.17;1.30;;;5.50;99.90;;;;;;5036331;28;20254;-82
2021/01/07 10:56:37;;;;;;;3.80;1.37;;;5.50;99.90;;;;;;5038512;28;20275;-91
2021/01/07 10:59:17;;;;;;;10.50;1.57;;;5.60;99.90;;;;;;5038490;28;20195;-83
2021/01/07 11:02:13;;;;;;;5.50;0.90;;;5.60;99.90;;;;;;5045233;28;20501;-90
2021/01/07 11:05:07;;;;;;;3.40;1.03;;;5.60;99.90;;;;;;5040273;28;20237;-94
2021/01/07 11:07:43;;;;;;;4.50;1.50;;;5.60;99.90;;;;;;5033415;28;20214;-91
2021/01/07 11:10:12;;;;;;;7.13;2.13;;;5.60;99.90;;;;;;5033916;28;20214;-95
2021/01/07 11:12:47;;;;;;;4.17;1.33;;;5.60;99.90;;;;;;5036625;28;20649;-94
2021/01/07 11:15:19;;;;;;;3.60;0.90;;;5.70;99.90;;;;;;5026304;28;20238;-89
2021/01/07 11:17:52;;;;;;;2.83;1.20;;;5.70;99.90;;;;;;5031297;28;20202;-92
2021/01/07 11:20:19;;;;;;;3.77;1.10;;;5.70;99.90;;;;;;5030848;28;20214;-93
2021/01/07 11:22:53;;;;;;;5.43;1.80;;;5.70;99.90;;;;;;5026732;28;20198;-92
2021/01/07 11:25:20;;;;;;;7.27;1.10;;;5.70;99.90;;;;;;5025778;28;20225;-94
2021/01/07 11:27:49;;;;;;;4.13;1.10;;;5.70;99.90;;;;;;5025271;28;20199;-85
2021/01/07 11:30:17;;;;;;;2.97;0.83;;;5.70;99.90;;;;;;5024795;28;20637;-94
2021/01/07 11:32:45;;;;;;;6.63;1.30;;;5.70;99.90;;;;;;5022036;28;20599;-91
2021/01/07 11:35:13;;;;;;;6.23;1.20;;;5.80;99.90;;;;;;5028838;28;20226;-90
2021/01/07 11:38:02;;;;;;;4.87;1.23;;;5.70;99.90;;;;;;5021081;28;20207;-94
2021/01/07 11:40:34;;;;;;;3.93;1.20;;;5.70;99.90;;;;;;5013772;28;20207;-93
2021/01/07 11:43:34;;;;;;;5.43;1.20;;;5.70;99.90;;;;;;5024614;28;20680;-89
2021/01/07 11:46:02;;;;;;;8.00;1.40;;;5.70;99.90;;;;;;5020823;28;20657;-93
2021/01/07 11:48:30;;;;;;;7.93;1.20;;;5.70;99.90;;;;;;5023781;28;20211;-95
2021/01/07 11:51:03;;;;;;;7.33;2.40;;;5.80;99.90;;;;;;5024698;28;20207;-89
2021/01/07 11:53:30;;;;;;;5.93;1.63;;;5.80;99.90;;;;;;5024191;28;20631;-93
2021/01/07 11:55:59;;;;;;;5.50;1.67;;;5.80;99.90;;;;;;5030634;28;20226;-93
2021/01/07 11:58:28;;;;;;;8.30;1.60;;;5.80;99.90;;;;;;5027021;28;20521;-92
2021/01/07 12:00:55;;;;;;;6.13;1.07;;;5.80;99.90;;;;;;5033774;28;20198;-88
2021/01/07 12:03:28;;;;;;;4.50;1.40;;;5.80;99.90;;;;;;5025393;28;20207;-94
2021/01/07 12:05:57;;;;;;;6.13;1.90;;;5.80;99.90;;;;;;5023582;28;20214;-92
2021/01/07 12:08:36;;;;;;;7.07;1.60;;;5.80;99.90;;;;;;5029850;28;20256;-93
2021/01/07 12:11:06;;;;;;;5.73;1.10;;;5.80;99.90;;;;;;5027411;28;20217;-92
2021/01/07 12:13:40;;;;;;;5.80;1.63;;;5.80;99.90;;;;;;5035772;28;20746;-89
2021/01/07 12:16:12;;;;;;;10.73;3.50;;;5.80;99.90;;;;;;5044818;28;20597;-91
2021/01/07 12:18:40;;;;;;;4.40;0.93;;;5.80;99.90;;;;;;5038117;28;20191;-92
2021/01/07 12:21:07;;;;;;;8.60;1.23;;;5.80;99.90;;;;;;5037778;28;20214;-88
2021/01/07 12:23:36;;;;;;;6.47;1.30;;;5.80;99.90;;;;;;5035222;28;20206;-87
2021/01/07 12:26:03;;;;;;;8.03;1.17;;;5.70;99.90;;;;;;5036316;28;20919;-81
2021/01/07 12:28:32;;;;;;;4.13;1.20;;;5.70;99.90;;;;;;5032802;28;20234;-80
2021/01/07 12:31:02;;;;;;;9.90;2.10;;;5.70;99.90;;;;;;5041686;28;20911;-88
2021/01/07 12:33:37;;;;;;;7.80;1.70;;;5.80;99.90;;;;;;5037124;28;20218;-83
2021/01/07 12:36:06;;;;;;;6.77;1.50;;;5.70;99.90;;;;;;5034523;28;20213;-79
2021/01/07 12:38:56;;;;;;;6.47;1.70;;;5.70;99.90;;;;;;5040733;28;20225;-79
2021/01/07 12:41:36;;;;;;;6.63;2.00;;;5.60;99.90;;;;;;5040661;28;20218;-94
2021/01/07 12:44:06;;;;;;;5.77;1.60;;;5.60;99.90;;;;;;5033383;28;20202;-83
2021/01/07 12:46:41;;;;;;;12.87;1.77;;;5.70;99.90;;;;;;5031783;28;20894;-92
2021/01/07 12:49:09;;;;;;;5.40;1.50;;;5.60;99.90;;;;;;5027953;28;20189;-88
2021/01/07 12:51:36;;;;;;;6.83;1.57;;;5.70;99.90;;;;;;5035704;28;20893;-88
2021/01/07 12:54:03;;;;;;;4.27;1.30;;;5.60;99.90;;;;;;5036492;28;20222;-87
2021/01/07 12:56:37;;;;;;;6.23;1.77;;;5.60;99.90;;;;;;5031554;28;20227;-88
2021/01/07 12:59:09;;;;;;;11.10;1.90;;;5.60;99.90;;;;;;5034684;28;20256;-79
2021/01/07 13:01:45;;;;;;;5.83;1.70;;;5.60;99.90;;;;;;5037057;28;20222;-88
2021/01/07 13:04:18;;;;;;;7.63;1.40;;;5.60;99.90;;;;;;5037042;28;20198;-91
2021/01/07 13:06:49;;;;;;;8.57;1.50;;;5.60;99.90;;;;;;5039262;28;20256;-82
2021/01/07 13:09:17;;;;;;;5.07;1.57;;;5.60;99.90;;;;;;5021921;28;20240;-89
2021/01/07 13:11:44;;;;;;;3.20;1.20;;;5.60;99.90;;;;;;5041872;28;20220;-90
2021/01/07 13:14:11;;;;;;;5.23;1.40;;;5.70;99.90;;;;;;5041812;28;20242;-89
2021/01/07 13:16:38;;;;;;;7.27;1.50;;;5.70;99.90;;;;;;5040591;28;20218;-79
2021/01/07 13:19:05;;;;;;;4.83;1.10;;;5.60;99.90;;;;;;5037287;28;20217;-83
2021/01/07 13:21:31;;;;;;;4.63;1.27;;;5.60;99.90;;;;;;5032249;28;20198;-94
2021/01/07 13:24:03;;;;;;;5.57;1.20;;;5.60;99.90;;;;;;5039691;28;20210;-90
2021/01/07 13:26:30;;;;;;;3.80;0.90;;;5.60;99.90;;;;;;5033152;28;20720;-93